Time;durP1;ratioP1;P1;durP2;ratioP2;P2;SDS_P1;SDS_P2;PMS_P1;PMS_P2;Temp;Humidity;BMP_temperature;BMP_pressure;BME280_temperature;BME280_humidity;BME280_pressure;Samples;Min_cycle;Max_cycle;Signal;HPM_P1;HPM_P2
2023/10/11 00:01:59;;;;;;;;;;;;;;;;;;6199892;23;19927;-85
2023/10/11 00:04:26;;;;;;;;;;;;;;;;;;6200880;23;19944;-85
2023/10/11 00:07:09;;;;;;;;;;;;;;;;;;6200033;23;19955;-85
2023/10/11 00:09:51;;;;;;;;;;;;;;;;;;6171910;23;19923;-85
2023/10/11 00:12:26;;;;;;;;;;;;;;;;;;6174469;23;19920;-84
2023/10/11 00:14:57;;;;;;;;;;;;;;;;;;6147742;23;19920;-85
2023/10/11 00:17:25;;;;;;;;;;;;;;;;;;6175626;23;20017;-85
2023/10/11 00:19:52;;;;;;;;;;;;;;;;;;6174044;23;20329;-85
2023/10/11 00:22:24;;;;;;;;;;;;;;;;;;6177373;23;19916;-85
2023/10/11 00:24:53;;;;;;;;;;;;;;;;;;6202029;23;20436;-85
2023/10/11 00:27:20;;;;;;;;;;;;;;;;;;6203196;23;19942;-85
2023/10/11 00:29:48;;;;;;;;;;;;;;;;;;6173759;23;19927;-85
2023/10/11 00:32:15;;;;;;;;;;;;;;;;;;6174406;23;19943;-85
2023/10/11 00:34:43;;;;;;;;;;;;;;;;;;6198684;23;20508;-85
2023/10/11 00:37:30;;;;;;;;;;;;;;;;;;6175149;23;19962;-84
2023/10/11 00:39:55;;;;;;;;;;;;;;;;;;6172937;23;19923;-85
2023/10/11 00:42:23;;;;;;;;;;;;;;;;;;6183265;23;19924;-85
2023/10/11 00:44:51;;;;;;;;;;;;;;;;;;6172713;23;19923;-85
2023/10/11 00:47:18;;;;;;;;;;;;;;;;;;6176056;23;20731;-84
2023/10/11 00:49:45;;;;;;;;;;;;;;;;;;6199622;23;19916;-85
2023/10/11 00:52:14;;;;;;;;;;;;;;;;;;6200928;23;20002;-84
2023/10/11 00:54:46;;;;;;;;;;;;;;;;;;6171851;23;19959;-85
2023/10/11 00:57:22;;;;;;;;;;;;;;;;;;6172869;23;19926;-84
2023/10/11 00:59:53;;;;;;;;;;;;;;;;;;6173318;23;19982;-85
2023/10/11 01:02:20;;;;;;;;;;;;;;;;;;6202403;23;19955;-84
2023/10/11 01:04:48;;;;;;;;;;;;;;;;;;6197703;23;19916;-84
2023/10/11 01:07:14;;;;;;;;;;;;;;;;;;6176329;23;20014;-84
2023/10/11 01:09:43;;;;;;;;;;;;;;;;;;6199519;23;20890;-85
2023/10/11 01:12:13;;;;;;;;;;;;;;;;;;6200313;23;20304;-85
2023/10/11 01:14:58;;;;;;;;;;;;;;;;;;6200248;23;19919;-85
2023/10/11 01:17:44;;;;;;;;;;;;;;;;;;6198709;23;19926;-85
2023/10/11 01:20:21;;;;;;;;;;;;;;;;;;6200993;23;19953;-84
2023/10/11 01:23:06;;;;;;;;;;;;;;;;;;6200805;23;20419;-85
2023/10/11 01:25:33;;;;;;;;;;;;;;;;;;6202955;23;19920;-85
2023/10/11 01:27:59;;;;;;;;;;;;;;;;;;6172967;23;19916;-85
2023/10/11 01:30:27;;;;;;;;;;;;;;;;;;6199677;23;20395;-85
2023/10/11 01:32:55;;;;;;;;;;;;;;;;;;6167076;23;19927;-84
2023/10/11 01:35:38;;;;;;;;;;;;;;;;;;6200607;23;19926;-85
2023/10/11 01:38:10;;;;;;;;;;;;;;;;;;6176003;23;19991;-85
2023/10/11 01:40:43;;;;;;;;;;;;;;;;;;6199580;23;19919;-85
2023/10/11 01:43:30;;;;;;;;;;;;;;;;;;6171838;23;20019;-85
2023/10/11 01:45:56;;;;;;;;;;;;;;;;;;6149054;23;19916;-85
2023/10/11 01:48:23;;;;;;;;;;;;;;;;;;6147912;23;19920;-85
2023/10/11 01:50:50;;;;;;;;;;;;;;;;;;6146635;23;19927;-85
2023/10/11 01:53:18;;;;;;;;;;;;;;;;;;6173990;23;19991;-85
2023/10/11 01:55:44;;;;;;;;;;;;;;;;;;6171898;23;20457;-85
2023/10/11 01:58:12;;;;;;;;;;;;;;;;;;6148369;23;20002;-85
2023/10/11 02:00:43;;;;;;;;;;;;;;;;;;6197372;23;19926;-85
2023/10/11 02:03:13;;;;;;;;;;;;;;;;;;6173925;23;20245;-85
2023/10/11 02:05:41;;;;;;;;;;;;;;;;;;6196687;23;20345;-85
2023/10/11 02:08:13;;;;;;;;;;;;;;;;;;6201463;23;19958;-85
2023/10/11 02:10:40;;;;;;;;;;;;;;;;;;6198826;23;20282;-85
2023/10/11 02:13:15;;;;;;;;;;;;;;;;;;6200735;23;19981;-85
2023/10/11 02:15:47;;;;;;;;;;;;;;;;;;6199449;23;19972;-85
2023/10/11 02:18:17;;;;;;;;;;;;;;;;;;6171387;23;19924;-85
2023/10/11 02:20:46;;;;;;;;;;;;;;;;;;6142777;23;19926;-85
2023/10/11 02:23:14;;;;;;;;;;;;;;;;;;6172865;23;19927;-85
2023/10/11 02:25:44;;;;;;;;;;;;;;;;;;6147706;23;19927;-85
2023/10/11 02:28:14;;;;;;;;;;;;;;;;;;6172399;23;19920;-85
2023/10/11 02:30:42;;;;;;;;;;;;;;;;;;6171637;23;19920;-84
2023/10/11 02:33:12;;;;;;;;;;;;;;;;;;6176207;23;19916;-84
2023/10/11 02:35:52;;;;;;;;;;;;;;;;;;6170651;23;20463;-85
2023/10/11 02:38:22;;;;;;;;;;;;;;;;;;6174165;23;19928;-85
2023/10/11 02:40:59;;;;;;;;;;;;;;;;;;6171543;23;19986;-85
2023/10/11 02:43:33;;;;;;;;;;;;;;;;;;6172217;23;19955;-84
2023/10/11 02:46:03;;;;;;;;;;;;;;;;;;6176056;23;20300;-85
2023/10/11 02:48:34;;;;;;;;;;;;;;;;;;6200314;23;19920;-85
2023/10/11 02:51:13;;;;;;;;;;;;;;;;;;6202287;23;19950;-85
2023/10/11 02:53:46;;;;;;;;;;;;;;;;;;6172760;23;19923;-85
2023/10/11 02:56:15;;;;;;;;;;;;;;;;;;6174615;23;19920;-85
2023/10/11 02:58:46;;;;;;;;;;;;;;;;;;6170798;23;19919;-85
2023/10/11 03:01:20;;;;;;;;;;;;;;;;;;6175326;23;19920;-84
2023/10/11 03:03:56;;;;;;;;;;;;;;;;;;6172070;23;19919;-84
2023/10/11 03:06:27;;;;;;;;;;;;;;;;;;6151358;23;19927;-84
2023/10/11 03:08:54;;;;;;;;;;;;;;;;;;6172972;23;19920;-85
2023/10/11 03:11:20;;;;;;;;;;;;;;;;;;6201766;23;19962;-84
2023/10/11 03:13:55;;;;;;;;;;;;;;;;;;6148330;23;20332;-84
2023/10/11 03:16:23;;;;;;;;;;;;;;;;;;6201156;23;19916;-85
2023/10/11 03:19:13;;;;;;;;;;;;;;;;;;6175993;23;19958;-85
2023/10/11 03:21:57;;;;;;;;;;;;;;;;;;6200510;23;19927;-84
2023/10/11 03:24:25;;;;;;;;;;;;;;;;;;6174135;23;19926;-84
2023/10/11 03:26:52;;;;;;;;;;;;;;;;;;6145932;23;20847;-84
2023/10/11 03:29:18;;;;;;;;;;;;;;;;;;6172678;23;19955;-85
2023/10/11 03:31:45;;;;;;;;;;;;;;;;;;6171645;23;19924;-84
2023/10/11 03:34:14;;;;;;;;;;;;;;;;;;6176627;23;19924;-84
2023/10/11 03:37:00;;;;;;;;;;;;;;;;;;6172479;23;19920;-85
2023/10/11 03:44:58;;;;;;;;;;;;;;;;;;6132134;23;19927;-84
2023/10/11 03:47:31;;;;;;;;;;;;;;;;;;6202549;23;19920;-85
2023/10/11 03:50:07;;;;;;;;;;;;;;;;;;6174397;23;19935;-85
2023/10/11 03:52:40;;;;;;;;;;;;;;;;;;6146518;23;19923;-85
2023/10/11 03:55:16;;;;;;;;;;;;;;;;;;6150036;23;19916;-85
2023/10/11 03:57:44;;;;;;;;;;;;;;;;;;6145297;23;19927;-85
2023/10/11 04:00:25;;;;;;;;;;;;;;;;;;6173177;23;20329;-85
2023/10/11 04:03:05;;;;;;;;;;;;;;;;;;6146794;23;19927;-85
2023/10/11 04:05:35;;;;;;;;;;;;;;;;;;6175665;23;19931;-85
2023/10/11 04:08:24;;;;;;;;;;;;;;;;;;6175797;23;20001;-85
2023/10/11 04:11:05;;;;;;;;;;;;;;;;;;6172862;23;19932;-85
2023/10/11 04:13:37;;;;;;;;;;;;;;;;;;6175788;23;19982;-85
2023/10/11 04:16:12;;;;;;;;;;;;;;;;;;6175530;23;19935;-85
2023/10/11 04:18:40;;;;;;;;;;;;;;;;;;6171514;23;19966;-85
2023/10/11 04:21:26;;;;;;;;;;;;;;;;;;6174801;23;19927;-85
2023/10/11 04:23:56;;;;;;;;;;;;;;;;;;6197592;23;19951;-85
2023/10/11 04:29:06;;;;;;;;;;;;;;;;;;6197481;23;19919;-85
2023/10/11 04:34:31;;;;;;;;;;;;;;;;;;6175217;23;19920;-85
2023/10/11 04:37:16;;;;;;;;;;;;;;;;;;6200035;23;20538;-85
2023/10/11 04:39:56;;;;;;;;;;;;;;;;;;6171649;23;19962;-85
2023/10/11 04:42:38;;;;;;;;;;;;;;;;;;6172177;23;19931;-85
2023/10/11 04:45:06;;;;;;;;;;;;;;;;;;6199570;23;19920;-84
2023/10/11 04:47:56;;;;;;;;;;;;;;;;;;6169626;23;20426;-85
2023/10/11 04:50:44;;;;;;;;;;;;;;;;;;6171633;23;19924;-85
2023/10/11 04:53:17;;;;;;;;;;;;;;;;;;6199605;23;19916;-84
2023/10/11 04:55:58;;;;;;;;;;;;;;;;;;6171311;23;19924;-85
2023/10/11 04:58:49;;;;;;;;;;;;;;;;;;6174898;23;19920;-85
2023/10/11 05:01:22;;;;;;;;;;;;;;;;;;6175311;23;19966;-85
2023/10/11 05:03:58;;;;;;;;;;;;;;;;;;6174455;23;20623;-85
2023/10/11 05:06:40;;;;;;;;;;;;;;;;;;6177004;23;20398;-85
2023/10/11 05:09:29;;;;;;;;;;;;;;;;;;6177263;23;19923;-85
2023/10/11 05:12:09;;;;;;;;;;;;;;;;;;6173768;23;20381;-85
2023/10/11 05:14:56;;;;;;;;;;;;;;;;;;6171039;23;20397;-85
2023/10/11 05:20:22;;;;;;;;;;;;;;;;;;6172724;23;20261;-84
2023/10/11 05:23:02;;;;;;;;;;;;;;;;;;6173260;23;19927;-85
2023/10/11 05:25:59;;;;;;;;;;;;;;;;;;6171695;23;19987;-85
2023/10/11 05:29:08;;;;;;;;;;;;;;;;;;6200647;23;19942;-85
2023/10/11 05:32:19;;;;;;;;;;;;;;;;;;6169548;23;19932;-85
2023/10/11 05:35:07;;;;;;;;;;;;;;;;;;6198491;23;19924;-84
2023/10/11 05:51:44;;;;;;;;;;;;;;;;;;6166393;23;19925;-85
2023/10/11 05:54:18;;;;;;;;;;;;;;;;;;6142811;23;19920;-85
2023/10/11 05:56:55;;;;;;;;;;;;;;;;;;6164241;23;20389;-85
2023/10/11 05:59:21;;;;;;;;;;;;;;;;;;6085844;23;19921;-85
2023/10/11 06:01:48;;;;;;;;;;;;;;;;;;6105621;23;19928;-84
2023/10/11 06:04:32;;;;;;;;;;;;;;;;;;6105422;23;19928;-85
2023/10/11 06:06:58;;;;;;;;;;;;;;;;;;6084511;23;19920;-84
2023/10/11 06:09:30;;;;;;;;;;;;;;;;;;6110314;23;19921;-84
2023/10/11 06:11:57;;;;;;;;;;;;;;;;;;6105165;23;20646;-85
2023/10/11 06:14:24;;;;;;;;;;;;;;;;;;6084259;23;20019;-84
2023/10/11 06:16:58;;;;;;;;;;;;;;;;;;6106525;23;20055;-85
2023/10/11 06:19:28;;;;;;;;;;;;;;;;;;6107965;23;20436;-85
2023/10/11 06:22:13;;;;;;;;;;;;;;;;;;6107367;23;20425;-85
2023/10/11 06:24:44;;;;;;;;;;;;;;;;;;6103974;23;19960;-85
2023/10/11 06:30:09;;;;;;;;;;;;;;;;;;6105989;23;19920;-84
2023/10/11 06:32:56;;;;;;;;;;;;;;;;;;6163139;23;19947;-85
2023/10/11 06:35:25;;;;;;;;;;;;;;;;;;6137502;23;20040;-86
2023/10/11 06:37:53;;;;;;;;;;;;;;;;;;6115574;23;19924;-85
2023/10/11 06:40:38;;;;;;;;;;;;;;;;;;6145082;23;19920;-85
2023/10/11 06:43:05;;;;;;;;;;;;;;;;;;6168431;23;19999;-85
2023/10/11 06:45:32;;;;;;;;;;;;;;;;;;6143209;23;20361;-85
2023/10/11 06:48:09;;;;;;;;;;;;;;;;;;6119904;23;19924;-86
2023/10/11 06:50:39;;;;;;;;;;;;;;;;;;6142094;23;19944;-85
2023/10/11 06:53:07;;;;;;;;;;;;;;;;;;6190392;23;19920;-85
2023/10/11 06:55:33;;;;;;;;;;;;;;;;;;6175189;23;19923;-85
2023/10/11 06:58:05;;;;;;;;;;;;;;;;;;6177284;23;19924;-86
2023/10/11 07:00:37;;;;;;;;;;;;;;;;;;6200630;23;19962;-86
2023/10/11 07:05:50;;;;;;;;;;;;;;;;;;6196658;23;19924;-85
2023/10/11 07:08:17;;;;;;;;;;;;;;;;;;6202924;23;19920;-85
2023/10/11 07:11:10;;;;;;;;;;;;;;;;;;6176017;23;19920;-85
2023/10/11 07:14:00;;;;;;;;;;;;;;;;;;6199776;23;20695;-85
2023/10/11 07:16:37;;;;;;;;;;;;;;;;;;6174625;23;19970;-85
2023/10/11 07:19:15;;;;;;;;;;;;;;;;;;6176578;23;19926;-85
2023/10/11 07:22:02;;;;;;;;;;;;;;;;;;6173730;23;19920;-85
2023/10/11 07:24:38;;;;;;;;;;;;;;;;;;6202841;23;20649;-85
2023/10/11 07:27:26;;;;;;;;;;;;;;;;;;6204316;23;19962;-84
2023/10/11 07:29:56;;;;;;;;;;;;;;;;;;6173637;23;19989;-85
2023/10/11 07:32:27;;;;;;;;;;;;;;;;;;6202978;23;19924;-84
2023/10/11 07:35:27;;;;;;;;;;;;;;;;;;6200844;23;19987;-84
2023/10/11 07:37:56;;;;;;;;;;;;;;;;;;6173178;23;20337;-84
2023/10/11 07:40:34;;;;;;;;;;;;;;;;;;6174771;23;20349;-84
2023/10/11 07:43:15;;;;;;;;;;;;;;;;;;6175457;23;19963;-84
2023/10/11 07:45:51;;;;;;;;;;;;;;;;;;6175214;23;19920;-84
2023/10/11 07:48:39;;;;;;;;;;;;;;;;;;6173664;23;19916;-84
2023/10/11 07:51:10;;;;;;;;;;;;;;;;;;6151415;23;19931;-84
2023/10/11 07:53:44;;;;;;;;;;;;;;;;;;6198813;23;19924;-85
2023/10/11 07:56:21;;;;;;;;;;;;;;;;;;6203893;23;20327;-84
2023/10/11 07:58:48;;;;;;;;;;;;;;;;;;6171914;23;20302;-84
2023/10/11 08:01:30;;;;;;;;;;;;;;;;;;6177266;23;19951;-84
2023/10/11 08:03:58;;;;;;;;;;;;;;;;;;6174285;23;19977;-84
2023/10/11 08:06:26;;;;;;;;;;;;;;;;;;6174988;23;20424;-84
2023/10/11 08:09:02;;;;;;;;;;;;;;;;;;6146432;23;19920;-84
2023/10/11 08:11:28;;;;;;;;;;;;;;;;;;6199864;23;19923;-84
2023/10/11 08:14:13;;;;;;;;;;;;;;;;;;6198353;23;20235;-84
2023/10/11 08:16:41;;;;;;;;;;;;;;;;;;6174720;23;19981;-84
2023/10/11 08:19:11;;;;;;;;;;;;;;;;;;6176378;23;19920;-84
2023/10/11 08:21:38;;;;;;;;;;;;;;;;;;6148265;23;19923;-84
2023/10/11 08:24:15;;;;;;;;;;;;;;;;;;6174361;23;19920;-84
2023/10/11 08:26:46;;;;;;;;;;;;;;;;;;6174063;23;19931;-85
2023/10/11 08:29:32;;;;;;;;;;;;;;;;;;6176673;23;19916;-84
2023/10/11 08:31:59;;;;;;;;;;;;;;;;;;6152210;23;19923;-84
2023/10/11 08:34:50;;;;;;;;;;;;;;;;;;6178207;23;20221;-84
2023/10/11 08:37:18;;;;;;;;;;;;;;;;;;6178450;23;20018;-84
2023/10/11 08:39:46;;;;;;;;;;;;;;;;;;6175999;23;20006;-84
2023/10/11 08:42:16;;;;;;;;;;;;;;;;;;6177797;23;19931;-85
2023/10/11 08:44:46;;;;;;;;;;;;;;;;;;6151636;23;19926;-84
2023/10/11 08:47:20;;;;;;;;;;;;;;;;;;6154333;23;19924;-84
2023/10/11 08:49:50;;;;;;;;;;;;;;;;;;6202326;23;20655;-84
2023/10/11 08:52:18;;;;;;;;;;;;;;;;;;6204811;23;19920;-84
2023/10/11 08:54:44;;;;;;;;;;;;;;;;;;6201817;23;19943;-85
2023/10/11 08:57:13;;;;;;;;;;;;;;;;;;6177862;23;20337;-84
2023/10/11 08:59:44;;;;;;;;;;;;;;;;;;6202702;23;19943;-85
2023/10/11 09:02:12;;;;;;;;;;;;;;;;;;6204831;23;20416;-84
2023/10/11 09:04:37;;;;;;;;;;;;;;;;;;6200948;23;20413;-85
2023/10/11 09:07:05;;;;;;;;;;;;;;;;;;6179144;23;19916;-84
2023/10/11 09:09:38;;;;;;;;;;;;;;;;;;6204307;23;19927;-84
2023/10/11 09:12:23;;;;;;;;;;;;;;;;;;6204906;23;19924;-85
2023/10/11 09:14:53;;;;;;;;;;;;;;;;;;6200616;23;19920;-85
2023/10/11 09:17:22;;;;;;;;;;;;;;;;;;6206756;23;20038;-84
2023/10/11 09:20:00;;;;;;;;;;;;;;;;;;6176740;23;19976;-85
2023/10/11 09:22:35;;;;;;;;;;;;;;;;;;6202418;23;20333;-85
2023/10/11 09:25:02;;;;;;;;;;;;;;;;;;6204769;23;20044;-85
2023/10/11 09:27:29;;;;;;;;;;;;;;;;;;6177456;23;19955;-85
2023/10/11 09:29:57;;;;;;;;;;;;;;;;;;6200401;23;19927;-85
2023/10/11 09:32:28;;;;;;;;;;;;;;;;;;6178457;23;20265;-85
2023/10/11 09:34:56;;;;;;;;;;;;;;;;;;6148945;23;19920;-85
2023/10/11 09:37:23;;;;;;;;;;;;;;;;;;6202815;23;19962;-85
2023/10/11 09:39:53;;;;;;;;;;;;;;;;;;6202072;23;19935;-85
2023/10/11 09:42:22;;;;;;;;;;;;;;;;;;6176535;23;19927;-85
2023/10/11 09:44:57;;;;;;;;;;;;;;;;;;6174771;23;19927;-85
2023/10/11 09:47:34;;;;;;;;;;;;;;;;;;6177144;23;20394;-85
2023/10/11 09:50:24;;;;;;;;;;;;;;;;;;6177486;23;19924;-85
2023/10/11 09:52:50;;;;;;;;;;;;;;;;;;6150814;23;19931;-85
2023/10/11 09:55:17;;;;;;;;;;;;;;;;;;6177557;23;20337;-85
2023/10/11 09:57:50;;;;;;;;;;;;;;;;;;6174860;23;19919;-85
2023/10/11 10:00:18;;;;;;;;;;;;;;;;;;6153502;23;19987;-85
2023/10/11 10:02:46;;;;;;;;;;;;;;;;;;6150115;23;19951;-86
2023/10/11 10:05:15;;;;;;;;;;;;;;;;;;6201306;23;20381;-85
2023/10/11 10:07:47;;;;;;;;;;;;;;;;;;6202342;23;19943;-85
2023/10/11 10:10:24;;;;;;;;;;;;;;;;;;6204358;23;19927;-85
2023/10/11 10:12:55;;;;;;;;;;;;;;;;;;6202607;23;20519;-85
2023/10/11 10:15:28;;;;;;;;;;;;;;;;;;6177042;23;19998;-85
2023/10/11 10:17:57;;;;;;;;;;;;;;;;;;6175886;23;20660;-85
2023/10/11 10:20:28;;;;;;;;;;;;;;;;;;6176394;23;19970;-85
2023/10/11 10:23:04;;;;;;;;;;;;;;;;;;6177943;23;20303;-86
2023/10/11 10:25:31;;;;;;;;;;;;;;;;;;6152355;23;20348;-85
2023/10/11 10:27:56;;;;;;;;;;;;;;;;;;6172993;23;20372;-85
2023/10/11 10:30:27;;;;;;;;;;;;;;;;;;6176405;23;19931;-85
2023/10/11 10:32:55;;;;;;;;;;;;;;;;;;6175033;23;19920;-85
2023/10/11 10:35:21;;;;;;;;;;;;;;;;;;6152632;23;19916;-85
2023/10/11 10:37:48;;;;;;;;;;;;;;;;;;6172618;23;19920;-85
2023/10/11 10:40:24;;;;;;;;;;;;;;;;;;6153448;23;20535;-86
2023/10/11 10:42:50;;;;;;;;;;;;;;;;;;6174703;23;19956;-85
2023/10/11 10:45:16;;;;;;;;;;;;;;;;;;6151087;23;19920;-86
2023/10/11 10:47:43;;;;;;;;;;;;;;;;;;6147856;23;19920;-85
2023/10/11 10:50:21;;;;;;;;;;;;;;;;;;6176289;23;19924;-85
2023/10/11 10:52:49;;;;;;;;;;;;;;;;;;6200865;23;20337;-85
2023/10/11 10:55:35;;;;;;;;;;;;;;;;;;6175707;23;19924;-86
2023/10/11 10:58:03;;;;;;;;;;;;;;;;;;6151942;23;19920;-85
2023/10/11 11:00:33;;;;;;;;;;;;;;;;;;6153107;23;19916;-85
2023/10/11 11:03:01;;;;;;;;;;;;;;;;;;6176297;23;19920;-85
2023/10/11 11:05:39;;;;;;;;;;;;;;;;;;6177369;23;19942;-85
2023/10/11 11:08:24;;;;;;;;;;;;;;;;;;6174562;23;19923;-86
2023/10/11 11:10:56;;;;;;;;;;;;;;;;;;6174517;23;19924;-86
2023/10/11 11:13:25;;;;;;;;;;;;;;;;;;6203152;23;19919;-85
2023/10/11 11:15:59;;;;;;;;;;;;;;;;;;6174013;23;19920;-85
2023/10/11 11:18:25;;;;;;;;;;;;;;;;;;6150435;23;19927;-85
2023/10/11 11:20:52;;;;;;;;;;;;;;;;;;6200994;23;19915;-85
2023/10/11 11:23:19;;;;;;;;;;;;;;;;;;6177099;23;20006;-85
2023/10/11 11:25:49;;;;;;;;;;;;;;;;;;6174030;23;20363;-85
2023/10/11 11:28:24;;;;;;;;;;;;;;;;;;6149871;23;19920;-85
2023/10/11 11:30:52;;;;;;;;;;;;;;;;;;6174131;23;20398;-85
2023/10/11 11:33:19;;;;;;;;;;;;;;;;;;6151220;23;20238;-85
2023/10/11 11:35:53;;;;;;;;;;;;;;;;;;6199192;23;19927;-85
2023/10/11 11:38:23;;;;;;;;;;;;;;;;;;6174703;23;19924;-85
2023/10/11 11:40:59;;;;;;;;;;;;;;;;;;6201113;23;19920;-85
2023/10/11 11:43:25;;;;;;;;;;;;;;;;;;6176850;23;19931;-85
2023/10/11 11:46:01;;;;;;;;;;;;;;;;;;6169289;23;19919;-85
2023/10/11 11:48:28;;;;;;;;;;;;;;;;;;6205289;23;19970;-85
2023/10/11 11:51:04;;;;;;;;;;;;;;;;;;6176706;23;19924;-86
2023/10/11 11:53:31;;;;;;;;;;;;;;;;;;6178179;23;19920;-85
2023/10/11 11:56:00;;;;;;;;;;;;;;;;;;6175180;23;19920;-85
2023/10/11 11:58:31;;;;;;;;;;;;;;;;;;6176926;23;19982;-85
2023/10/11 12:01:15;;;;;;;;;;;;;;;;;;6178076;23;20233;-85
2023/10/11 12:03:42;;;;;;;;;;;;;;;;;;6169916;23;19939;-85
2023/10/11 12:09:17;;;;;;;;;;;;;;;;;;6203590;23;20400;-86
2023/10/11 12:11:55;;;;;;;;;;;;;;;;;;6176007;23;19924;-85
2023/10/11 12:14:23;;;;;;;;;;;;;;;;;;6178031;23;20629;-85
2023/10/11 12:16:50;;;;;;;;;;;;;;;;;;6173638;23;19990;-85
2023/10/11 12:19:16;;;;;;;;;;;;;;;;;;6177764;23;19919;-85
2023/10/11 12:21:43;;;;;;;;;;;;;;;;;;6175405;23;19920;-85
2023/10/11 12:24:14;;;;;;;;;;;;;;;;;;6179770;23;19924;-85
2023/10/11 12:26:43;;;;;;;;;;;;;;;;;;6176470;23;19986;-85
2023/10/11 12:29:12;;;;;;;;;;;;;;;;;;6179225;23;19916;-85
2023/10/11 12:31:39;;;;;;;;;;;;;;;;;;6177393;23;19920;-86
2023/10/11 12:34:06;;;;;;;;;;;;;;;;;;6177112;23;20484;-86
2023/10/11 12:36:53;;;;;;;;;;;;;;;;;;6172195;23;20466;-86
2023/10/11 12:39:30;;;;;;;;;;;;;;;;;;6174007;23;19920;-86
2023/10/11 12:41:59;;;;;;;;;;;;;;;;;;6173914;23;19973;-84
2023/10/11 12:44:40;;;;;;;;;;;;;;;;;;6199048;23;19966;-85
2023/10/11 12:47:10;;;;;;;;;;;;;;;;;;6201971;23;20330;-86
2023/10/11 12:49:40;;;;;;;;;;;;;;;;;;6172772;23;19915;-87
2023/10/11 12:52:15;;;;;;;;;;;;;;;;;;6202383;23;19931;-85
2023/10/11 12:54:46;;;;;;;;;;;;;;;;;;6175210;23;19994;-85
2023/10/11 12:57:15;;;;;;;;;;;;;;;;;;6175983;23;19994;-85
2023/10/11 12:59:46;;;;;;;;;;;;;;;;;;6175172;23;20292;-86
2023/10/11 13:02:21;;;;;;;;;;;;;;;;;;6177341;23;19940;-85
2023/10/11 13:04:49;;;;;;;;;;;;;;;;;;6174280;23;19926;-84
2023/10/11 13:07:18;;;;;;;;;;;;;;;;;;6172703;23;19993;-85
2023/10/11 13:09:45;;;;;;;;;;;;;;;;;;6151187;23;19951;-85
2023/10/11 13:12:17;;;;;;;;;;;;;;;;;;6178019;23;20264;-84
2023/10/11 13:14:44;;;;;;;;;;;;;;;;;;6174966;23;19916;-84
2023/10/11 13:17:15;;;;;;;;;;;;;;;;;;6182998;23;19947;-84
2023/10/11 13:19:44;;;;;;;;;;;;;;;;;;6174867;23;19920;-85
2023/10/11 13:22:12;;;;;;;;;;;;;;;;;;6149756;23;19931;-84
2023/10/11 13:24:41;;;;;;;;;;;;;;;;;;6173604;23;20330;-84
2023/10/11 13:27:09;;;;;;;;;;;;;;;;;;6178042;23;19924;-84
2023/10/11 13:29:36;;;;;;;;;;;;;;;;;;6165403;23;20002;-86
2023/10/11 13:32:08;;;;;;;;;;;;;;;;;;6147504;23;20425;-85
2023/10/11 13:34:37;;;;;;;;;;;;;;;;;;6166848;23;19929;-84
2023/10/11 13:37:08;;;;;;;;;;;;;;;;;;6169006;23;19991;-85
2023/10/11 13:39:45;;;;;;;;;;;;;;;;;;6138897;23;20354;-85
2023/10/11 13:42:14;;;;;;;;;;;;;;;;;;6168661;23;20008;-85
2023/10/11 13:44:55;;;;;;;;;;;;;;;;;;6107181;23;20439;-85
2023/10/11 13:47:26;;;;;;;;;;;;;;;;;;6060929;23;20003;-85
2023/10/11 13:49:59;;;;;;;;;;;;;;;;;;6060591;23;19995;-85
2023/10/11 13:52:32;;;;;;;;;;;;;;;;;;6060842;23;19960;-84
2023/10/11 13:58:05;;;;;;;;;;;;;;;;;;;;;
2023/10/11 14:06:31;;;;;;;;;;;;;;;;;;6067637;23;19921;-85
2023/10/11 14:09:16;;;;;;;;;;;;;;;;;;6136833;23;19920;-84
2023/10/11 14:15:17;;;;;;;;;;;;;;;;;;6149502;23;19927;-85
2023/10/11 14:17:58;;;;;;;;;;;;;;;;;;6172767;23;19924;-84
2023/10/11 14:20:37;;;;;;;;;;;;;;;;;;6150040;23;19951;-85
2023/10/11 14:23:05;;;;;;;;;;;;;;;;;;6149945;23;19916;-85
2023/10/11 14:25:41;;;;;;;;;;;;;;;;;;6175338;23;19920;-86
2023/10/11 14:28:14;;;;;;;;;;;;;;;;;;6175765;23;19969;-84
2023/10/11 14:30:53;;;;;;;;;;;;;;;;;;6166365;23;19981;-85
2023/10/11 14:33:24;;;;;;;;;;;;;;;;;;6176468;23;20335;-85
2023/10/11 14:35:50;;;;;;;;;;;;;;;;;;6148456;23;19920;-85
2023/10/11 14:38:16;;;;;;;;;;;;;;;;;;6175327;23;20328;-85
2023/10/11 14:40:44;;;;;;;;;;;;;;;;;;6172780;23;19916;-84
2023/10/11 14:43:15;;;;;;;;;;;;;;;;;;6172526;23;19930;-84
2023/10/11 14:45:44;;;;;;;;;;;;;;;;;;6170188;23;19926;-85
2023/10/11 14:48:11;;;;;;;;;;;;;;;;;;6147681;23;19920;-85
2023/10/11 14:50:42;;;;;;;;;;;;;;;;;;6146619;23;19924;-85
2023/10/11 14:53:13;;;;;;;;;;;;;;;;;;6170574;23;19920;-84
2023/10/11 14:55:43;;;;;;;;;;;;;;;;;;6147419;23;19920;-85
2023/10/11 14:58:11;;;;;;;;;;;;;;;;;;6171707;23;20403;-84
2023/10/11 15:00:41;;;;;;;;;;;;;;;;;;6144038;23;19920;-85
2023/10/11 15:03:13;;;;;;;;;;;;;;;;;;6174166;23;19969;-84
2023/10/11 15:05:40;;;;;;;;;;;;;;;;;;6170167;23;20595;-85
2023/10/11 15:08:07;;;;;;;;;;;;;;;;;;6150450;23;19916;-85
2023/10/11 15:10:45;;;;;;;;;;;;;;;;;;6184429;23;20405;-84
2023/10/11 15:13:14;;;;;;;;;;;;;;;;;;6149787;23;19920;-84
2023/10/11 15:15:41;;;;;;;;;;;;;;;;;;6148738;23;19930;-84
2023/10/11 15:18:11;;;;;;;;;;;;;;;;;;6175016;23;19927;-85
2023/10/11 15:20:42;;;;;;;;;;;;;;;;;;6174004;23;19919;-85
2023/10/11 15:23:11;;;;;;;;;;;;;;;;;;6149560;23;19966;-85
2023/10/11 15:25:47;;;;;;;;;;;;;;;;;;6169320;23;19920;-85
2023/10/11 15:28:13;;;;;;;;;;;;;;;;;;6202181;23;19926;-85
2023/10/11 15:30:44;;;;;;;;;;;;;;;;;;6147433;23;19974;-84
2023/10/11 15:45:32;;;;;;;;;;;;;;;;;;6116626;23;20008;-84
2023/10/11 16:03:29;;;;;;;;;;;;;;;;;;5888869;24;20261;-84
2023/10/11 16:06:18;;;;;;;;;;;;;;;;;;5826391;24;20046;-85
2023/10/11 16:09:21;;;;;;;;;;;;;;;;;;;;;
2023/10/11 16:30:14;;;;;;;;;;;;;;;;;;;;;
2023/10/11 16:33:16;;;;;;;;;;;;;;;;;;5996433;23;19929;-85
2023/10/11 16:39:45;;;;;;;;;;;;;;;;;;;;;
2023/10/11 16:42:46;;;;;;;;;;;;;;;;;;;;;
2023/10/11 17:01:54;;;;;;;;;;;;;;;;;;;;;
2023/10/11 17:05:09;;;;;;;;;;;;;;;;;;;;;
2023/10/11 17:17:36;;;;;;;;;;;;;;;;;;;;;
2023/10/11 17:33:29;;;;;;;;;;;;;;;;;;;;;
2023/10/11 17:46:36;;;;;;;;;;;;;;;;;;;;;
2023/10/11 17:55:43;;;;;;;;;;;;;;;;;;5997674;23;20303;-85
2023/10/11 18:04:05;;;;;;;;;;;;;;;;;;6072853;23;19968;-84
2023/10/11 18:06:46;;;;;;;;;;;;;;;;;;6105046;23;19928;-85
2023/10/11 18:09:19;;;;;;;;;;;;;;;;;;6108938;23;19953;-85
2023/10/11 18:11:46;;;;;;;;;;;;;;;;;;6064476;23;19925;-84
2023/10/11 18:14:20;;;;;;;;;;;;;;;;;;6168650;23;20301;-84
2023/10/11 18:16:57;;;;;;;;;;;;;;;;;;6142634;23;20708;-84
2023/10/11 18:19:42;;;;;;;;;;;;;;;;;;;;;
2023/10/11 18:22:21;;;;;;;;;;;;;;;;;;6147158;23;19928;-84
2023/10/11 18:24:49;;;;;;;;;;;;;;;;;;6140120;23;19920;-85
2023/10/11 18:27:31;;;;;;;;;;;;;;;;;;6169804;23;19947;-85
2023/10/11 18:30:26;;;;;;;;;;;;;;;;;;6166795;23;19987;-85
2023/10/11 18:33:13;;;;;;;;;;;;;;;;;;6079693;23;20413;-85
2023/10/11 19:10:05;;;;;;;;;;;;;;;;;;;;;
2023/10/11 19:12:52;;;;;;;;;;;;;;;;;;5898499;24;20080;-85
2023/10/11 19:16:48;;;;;;;;;;;;;;;;;;5860837;24;20203;-86
2023/10/11 19:22:28;;;;;;;;;;;;;;;;;;5954146;24;20029;-85
2023/10/11 19:28:45;;;;;;;;;;;;;;;;;;5936275;24;19926;-86
2023/10/11 19:50:19;;;;;;;;;;;;;;;;;;5893202;24;19954;-86
2023/10/11 19:59:30;;;;;;;;;;;;;;;;;;5962451;24;19934;-86
2023/10/11 20:02:21;;;;;;;;;;;;;;;;;;6022892;23;19997;-85
2023/10/11 20:05:07;;;;;;;;;;;;;;;;;;6049378;23;19921;-86
2023/10/11 20:07:46;;;;;;;;;;;;;;;;;;;;;
2023/10/11 20:10:36;;;;;;;;;;;;;;;;;;;;;
2023/10/11 20:13:20;;;;;;;;;;;;;;;;;;6078264;23;19925;-86
2023/10/11 20:16:16;;;;;;;;;;;;;;;;;;6079293;23;19925;-86
2023/10/11 20:18:59;;;;;;;;;;;;;;;;;;6050973;23;19921;-86
2023/10/11 20:21:30;;;;;;;;;;;;;;;;;;6050479;23;19999;-86
2023/10/11 20:24:16;;;;;;;;;;;;;;;;;;6078246;23;20024;-86
2023/10/11 20:26:56;;;;;;;;;;;;;;;;;;6050536;23;19921;-86
2023/10/11 20:29:36;;;;;;;;;;;;;;;;;;6051267;23;19928;-86
2023/10/11 20:32:31;;;;;;;;;;;;;;;;;;6054821;23;20011;-86
2023/10/11 20:38:21;;;;;;;;;;;;;;;;;;;;;
2023/10/11 20:44:25;;;;;;;;;;;;;;;;;;6089542;23;19921;-86
2023/10/11 20:47:03;;;;;;;;;;;;;;;;;;6053693;23;20493;-85
2023/10/11 20:49:30;;;;;;;;;;;;;;;;;;6050843;23;19930;-85
2023/10/11 20:52:01;;;;;;;;;;;;;;;;;;6051573;23;20254;-86
2023/10/11 20:54:32;;;;;;;;;;;;;;;;;;6056673;23;19963;-86
2023/10/11 20:57:01;;;;;;;;;;;;;;;;;;6053847;23;19928;-85
2023/10/11 20:59:38;;;;;;;;;;;;;;;;;;6054209;23;19921;-85
2023/10/11 21:02:08;;;;;;;;;;;;;;;;;;6073758;23;19921;-85
2023/10/11 21:04:38;;;;;;;;;;;;;;;;;;6075880;23;19972;-86
2023/10/11 21:07:08;;;;;;;;;;;;;;;;;;6054982;23;20686;-86
2023/10/11 21:09:35;;;;;;;;;;;;;;;;;;6051517;23;19921;-86
2023/10/11 21:12:03;;;;;;;;;;;;;;;;;;6055823;23;20718;-86
2023/10/11 21:14:41;;;;;;;;;;;;;;;;;;6078625;23;19929;-86
2023/10/11 21:17:08;;;;;;;;;;;;;;;;;;6056589;23;19996;-86
2023/10/11 21:19:36;;;;;;;;;;;;;;;;;;6054905;23;19921;-86
2023/10/11 21:22:03;;;;;;;;;;;;;;;;;;6064049;23;19927;-86
2023/10/11 21:24:36;;;;;;;;;;;;;;;;;;6140725;23;19979;-86
2023/10/11 21:27:03;;;;;;;;;;;;;;;;;;6142550;23;19947;-86
2023/10/11 21:29:30;;;;;;;;;;;;;;;;;;6117250;23;20551;-86
2023/10/11 21:31:59;;;;;;;;;;;;;;;;;;6139178;23;20003;-86
2023/10/11 21:34:26;;;;;;;;;;;;;;;;;;6116592;23;20338;-86
2023/10/11 21:36:54;;;;;;;;;;;;;;;;;;6138960;23;19932;-86